Lynn Lake Airport
CYYL : now visible

Airfield :











YOU CAN JOIN US ON...

 
LOGIN :

Register | Disclaimer

   EN    FR    IT 

 









Legend :    VFR   Marginal VFR   IFR   Intensive IFR   Very Intensive IFR
Visi :
Ceiling :
>= 8 km
>= 3000ft
5 to 8 km
1000 to 3000 ft
1500m to 5 km
500 to 1000 ft
800 to 1500m
200 to 500 ft
< 800m
< 200 ft
Symbols :   Thunderstorms  Fog  Heavy snow  Heavy precipitations  Wind > 20 kt






- Airport Elevation : 1170 ft
- IATA code : YYL


CYYL - Lynn Lake

CURRENT METAR :
  • 110200Z AUTO 20003KT 9SM CLR 15/M05 A3007 RMK SLP197 DENSITY ALT 1300FT

EXPIRED METARs :
  • 110100Z AUTO 24004KT 9SM CLR 17/M04 A3008 RMK SLP199 DENSITY ALT 1600FT
  • 110000Z AUTO 23007KT 210V290 9SM CLR 18/M04 A3008 RMK SLP201 DENSITY ALT 1600FT

TAF TAF CYYL
Valid from the 11 at 01:00 until the 11 at 13:00 UTC


110038Z 1101/1113 23006KT P6SM SKC RMK FCST BASED ON AUTO OBS. NXT FCST BY 110700Z
CZWG FIR / North America



MET'MAP, your aeronautical weather chart ! - Copyright ORBIFLY December 2007 - Disclaimer

ORBIFLY MET'MAP TEAM :

Programming & Development : Alexandra Zaïnal
Concept & original design : Baudouin d'Aumeries
Assistance for programming : Marc-Olivier Méhu
Technical & hardware support : Manuel Goepfert

Contact : metmap@orbifly.com




SOURCES & CREDITS :

   NOAA       Earth
Advisory